createdAt,value
2023-05-21T00:01:54.750Z,12.82
2023-05-21T00:04:21.484Z,12.63
2023-05-21T00:06:48.036Z,12.63
2023-05-21T00:09:14.622Z,12.56
2023-05-21T00:11:41.380Z,12.43
2023-05-21T00:14:08.077Z,12.47
2023-05-21T00:16:34.723Z,12.42
2023-05-21T00:19:02.441Z,12.36
2023-05-21T00:21:29.821Z,12.36
2023-05-21T00:23:56.721Z,12.34
2023-05-21T00:26:26.595Z,12.32
2023-05-21T00:28:53.160Z,12.33
2023-05-21T00:31:19.886Z,12.24
2023-05-21T00:33:46.616Z,12.07
2023-05-21T00:36:14.562Z,12.00
2023-05-21T00:38:43.884Z,12.02
2023-05-21T00:41:11.080Z,12.03
2023-05-21T00:43:40.550Z,12.04
2023-05-21T00:46:08.778Z,12.01
2023-05-21T00:48:35.551Z,11.98
2023-05-21T00:51:02.419Z,11.93
2023-05-21T00:53:30.290Z,11.97
2023-05-21T00:55:57.758Z,11.93
2023-05-21T00:58:24.507Z,11.81
2023-05-21T01:00:51.487Z,11.79
2023-05-21T01:03:18.297Z,11.78
2023-05-21T01:05:47.106Z,11.78
2023-05-21T01:08:15.219Z,11.79
2023-05-21T01:10:42.045Z,11.82
2023-05-21T01:13:08.738Z,11.78
2023-05-21T01:15:36.109Z,11.72
2023-05-21T01:18:03.110Z,11.72
2023-05-21T01:20:32.323Z,11.70
2023-05-21T01:22:59.465Z,11.61
2023-05-21T01:25:26.301Z,11.56
2023-05-21T01:27:53.083Z,11.49
2023-05-21T01:30:21.990Z,11.50
2023-05-21T01:33:00.907Z,11.47
2023-05-21T01:35:30.107Z,11.52
2023-05-21T01:38:15.657Z,11.55
2023-05-21T01:40:52.225Z,11.51
2023-05-21T01:43:20.189Z,11.42
2023-05-21T01:45:47.997Z,11.42
2023-05-21T01:48:15.165Z,11.39
2023-05-21T01:50:44.641Z,11.36
2023-05-21T01:53:11.321Z,11.34
2023-05-21T01:55:42.046Z,11.34
2023-05-21T01:58:08.981Z,11.27
2023-05-21T02:00:36.006Z,11.26
2023-05-21T02:03:02.859Z,11.25
2023-05-21T02:05:29.521Z,11.24
2023-05-21T02:07:57.324Z,11.24
2023-05-21T02:10:23.950Z,11.25
2023-05-21T02:12:50.980Z,11.27
2023-05-21T02:15:20.443Z,11.27
2023-05-21T02:17:47.406Z,11.23
2023-05-21T02:20:14.692Z,11.18
2023-05-21T02:22:43.668Z,11.10
2023-05-21T02:25:12.085Z,11.08
2023-05-21T02:27:40.782Z,11.03
2023-05-21T02:30:09.532Z,11.03
2023-05-21T02:32:36.693Z,10.98
2023-05-21T02:35:04.889Z,11.01
2023-05-21T02:37:34.015Z,10.98
2023-05-21T02:40:02.505Z,10.95
2023-05-21T02:42:29.247Z,10.92
2023-05-21T02:44:56.664Z,10.90
2023-05-21T02:47:23.996Z,10.91
2023-05-21T02:49:51.896Z,10.86
2023-05-21T02:52:22.166Z,10.92
2023-05-21T02:54:48.980Z,10.99
2023-05-21T02:57:16.071Z,11.01
2023-05-21T02:59:42.661Z,11.06
2023-05-21T03:02:09.382Z,11.06
2023-05-21T03:04:39.176Z,10.99
2023-05-21T03:07:06.425Z,10.91
2023-05-21T03:09:32.969Z,10.88
2023-05-21T03:11:59.591Z,10.86
2023-05-21T03:14:26.229Z,10.92
2023-05-21T03:16:54.383Z,10.94
2023-05-21T03:19:21.536Z,10.90
2023-05-21T03:21:49.248Z,10.89
2023-05-21T03:24:16.002Z,10.86
2023-05-21T03:26:42.607Z,10.86
2023-05-21T03:29:09.350Z,10.93
2023-05-21T03:31:36.041Z,10.86
2023-05-21T03:34:02.661Z,10.80
2023-05-21T03:36:29.504Z,10.80
2023-05-21T03:38:56.202Z,10.79
2023-05-21T03:41:23.176Z,10.80
2023-05-21T03:43:49.748Z,10.78
2023-05-21T03:46:16.573Z,10.82
2023-05-21T03:48:43.264Z,10.85
2023-05-21T03:51:09.846Z,10.90
2023-05-21T03:53:37.147Z,10.98
2023-05-21T03:56:03.941Z,11.03
2023-05-21T03:58:31.124Z,11.05
2023-05-21T04:00:57.872Z,11.01
2023-05-21T04:03:25.010Z,10.92
2023-05-21T04:05:51.837Z,10.98
2023-05-21T04:08:18.486Z,10.98
2023-05-21T04:10:45.227Z,11.00
2023-05-21T04:13:11.922Z,11.12
2023-05-21T04:15:38.909Z,11.21
2023-05-21T04:18:07.424Z,11.29
2023-05-21T04:20:34.154Z,11.35
2023-05-21T04:23:01.309Z,11.42
2023-05-21T04:25:27.917Z,11.51
2023-05-21T04:27:54.985Z,11.53
2023-05-21T04:30:22.199Z,11.59
2023-05-21T04:32:49.058Z,11.70
2023-05-21T04:35:16.203Z,11.85
2023-05-21T04:37:42.889Z,11.90
2023-05-21T04:40:10.115Z,12.01
2023-05-21T04:42:36.858Z,12.10
2023-05-21T04:45:03.625Z,12.11
2023-05-21T04:47:30.490Z,12.12
2023-05-21T04:49:57.216Z,12.12
2023-05-21T04:52:25.208Z,12.16
2023-05-21T04:54:52.034Z,12.13
2023-05-21T04:57:18.765Z,12.17
2023-05-21T04:59:45.470Z,12.25
2023-05-21T05:02:12.048Z,12.38
2023-05-21T05:04:38.909Z,12.53
2023-05-21T05:07:05.655Z,12.69
2023-05-21T05:09:32.330Z,12.89
2023-05-21T05:11:59.042Z,13.10
2023-05-21T05:14:25.768Z,13.29
2023-05-21T05:16:52.509Z,13.57
2023-05-21T05:19:19.308Z,13.77
2023-05-21T05:21:46.552Z,14.04
2023-05-21T05:24:13.284Z,14.38
2023-05-21T05:26:39.880Z,14.77
2023-05-21T05:29:06.571Z,15.11
2023-05-21T05:31:33.289Z,15.32
2023-05-21T05:33:59.927Z,15.64
2023-05-21T05:36:27.295Z,15.93
2023-05-21T05:38:53.797Z,16.17
2023-05-21T05:41:21.201Z,16.32
2023-05-21T05:43:48.180Z,16.41
2023-05-21T05:46:14.827Z,16.59
2023-05-21T05:48:41.515Z,16.59
2023-05-21T05:51:08.307Z,16.69
2023-05-21T05:53:35.009Z,16.79
2023-05-21T05:56:01.741Z,16.77
2023-05-21T05:58:29.970Z,17.08
2023-05-21T06:00:56.552Z,17.30
2023-05-21T06:03:23.349Z,17.25
2023-05-21T06:05:50.513Z,17.19
2023-05-21T06:08:17.267Z,17.26
2023-05-21T06:10:43.848Z,17.27
2023-05-21T06:13:10.484Z,17.23
2023-05-21T06:15:37.280Z,17.12
2023-05-21T06:18:04.202Z,17.07
2023-05-21T06:20:31.003Z,16.97
2023-05-21T06:22:57.586Z,17.02
2023-05-21T06:25:25.996Z,16.95
2023-05-21T06:27:52.832Z,16.97
2023-05-21T06:30:19.598Z,16.84
2023-05-21T06:32:46.661Z,17.04
2023-05-21T06:35:13.517Z,16.91
2023-05-21T06:37:40.204Z,17.09
2023-05-21T06:40:07.854Z,17.27
2023-05-21T06:42:34.816Z,17.46
2023-05-21T06:45:02.177Z,17.74
2023-05-21T06:47:28.638Z,17.71
2023-05-21T06:49:55.331Z,17.51
2023-05-21T06:52:22.079Z,17.54
2023-05-21T06:54:48.836Z,17.30
2023-05-21T06:57:16.438Z,17.48
2023-05-21T06:59:43.277Z,17.48
2023-05-21T07:02:09.910Z,17.47
2023-05-21T07:04:37.063Z,17.71
2023-05-21T07:07:06.309Z,17.61
2023-05-21T07:09:32.884Z,17.83
2023-05-21T07:11:59.604Z,17.77
2023-05-21T07:14:26.788Z,17.91
2023-05-21T07:16:53.890Z,17.78
2023-05-21T07:19:20.604Z,17.94
2023-05-21T07:21:47.495Z,18.27
2023-05-21T07:24:14.124Z,18.45
2023-05-21T07:26:41.265Z,18.40
2023-05-21T07:29:08.038Z,18.34
2023-05-21T07:31:34.737Z,18.84
2023-05-21T07:34:01.580Z,18.88
2023-05-21T07:36:28.232Z,19.03
2023-05-21T07:38:55.144Z,19.15
2023-05-21T07:41:22.206Z,19.31
2023-05-21T07:43:49.092Z,19.54
2023-05-21T07:46:15.860Z,19.27
2023-05-21T07:48:43.893Z,19.36
2023-05-21T07:51:11.678Z,19.51
2023-05-21T07:53:38.589Z,19.77
2023-05-21T07:56:05.417Z,19.89
2023-05-21T07:58:32.696Z,20.09
2023-05-21T08:00:59.352Z,20.93
2023-05-21T08:03:26.852Z,21.16
2023-05-21T08:05:53.516Z,21.46
2023-05-21T08:08:22.168Z,22.03
2023-05-21T08:10:49.268Z,22.53
2023-05-21T08:13:16.640Z,22.81
2023-05-21T08:15:43.667Z,22.62
2023-05-21T08:18:10.579Z,22.45
2023-05-21T08:20:37.648Z,22.01
2023-05-21T08:23:04.517Z,22.17
2023-05-21T08:25:31.540Z,22.09
2023-05-21T08:27:58.322Z,21.58
2023-05-21T08:30:24.943Z,22.21
2023-05-21T08:32:51.616Z,22.61
2023-05-21T08:35:18.375Z,22.57
2023-05-21T08:37:44.935Z,22.58
2023-05-21T08:40:12.608Z,22.65
2023-05-21T08:42:49.558Z,23.37
2023-05-21T08:45:23.495Z,23.69
2023-05-21T08:47:57.644Z,23.63
2023-05-21T08:50:28.290Z,23.42
2023-05-21T08:52:55.619Z,23.18
2023-05-21T08:55:25.042Z,22.88
2023-05-21T08:57:54.714Z,23.39
2023-05-21T09:00:21.474Z,23.68
2023-05-21T09:02:48.304Z,24.07
2023-05-21T09:05:15.321Z,23.89
2023-05-21T09:07:52.313Z,23.79
2023-05-21T09:10:27.267Z,24.29
2023-05-21T09:12:54.161Z,24.32
2023-05-21T09:15:21.247Z,23.91
2023-05-21T09:17:51.007Z,24.26
2023-05-21T09:20:17.979Z,24.15
2023-05-21T09:22:46.659Z,24.20
2023-05-21T09:25:29.459Z,23.85
2023-05-21T09:27:56.742Z,23.57
2023-05-21T09:30:26.802Z,23.60
2023-05-21T09:33:00.068Z,23.76
2023-05-21T09:35:27.110Z,24.11
2023-05-21T09:37:54.227Z,23.75
2023-05-21T09:40:22.406Z,24.11
2023-05-21T09:42:51.122Z,24.27
2023-05-21T09:45:28.286Z,24.10
2023-05-21T09:47:56.295Z,24.33
2023-05-21T09:50:29.843Z,24.63
2023-05-21T09:52:56.623Z,24.04
2023-05-21T09:55:24.041Z,24.38
2023-05-21T09:57:51.568Z,24.58
2023-05-21T10:00:21.363Z,23.99
2023-05-21T10:02:50.010Z,24.35
2023-05-21T10:05:17.675Z,24.39
2023-05-21T10:07:51.977Z,24.49
2023-05-21T10:10:21.530Z,24.01
2023-05-21T10:12:52.274Z,24.32
2023-05-21T10:15:23.984Z,24.74
2023-05-21T10:17:52.346Z,25.03
2023-05-21T10:20:19.714Z,25.04
2023-05-21T10:22:46.892Z,25.25
2023-05-21T10:25:13.604Z,25.39
2023-05-21T10:27:41.666Z,25.68
2023-05-21T10:30:09.602Z,24.79
2023-05-21T10:32:36.377Z,24.91
2023-05-21T10:35:03.375Z,25.71
2023-05-21T10:37:30.072Z,25.96
2023-05-21T10:39:57.357Z,26.34
2023-05-21T10:42:23.962Z,26.57
2023-05-21T10:45:12.500Z,26.74
2023-05-21T10:48:00.413Z,27.06
2023-05-21T10:50:38.668Z,27.38
2023-05-21T10:53:45.921Z,27.37
2023-05-21T10:56:25.507Z,27.58
2023-05-21T10:59:12.184Z,28.38
2023-05-21T11:01:40.758Z,27.89
2023-05-21T11:04:07.850Z,28.43
2023-05-21T11:06:34.509Z,28.57
2023-05-21T11:09:11.878Z,28.40
2023-05-21T11:11:48.708Z,28.35
2023-05-21T11:14:35.583Z,28.11
2023-05-21T11:17:03.513Z,28.31
2023-05-21T11:19:48.263Z,28.35
2023-05-21T11:22:26.171Z,28.38
2023-05-21T11:24:54.589Z,28.62
2023-05-21T11:27:33.908Z,28.14
2023-05-21T11:30:04.554Z,27.90
2023-05-21T11:32:31.766Z,27.76
2023-05-21T11:35:03.997Z,28.13
2023-05-21T11:37:31.978Z,28.70
2023-05-21T11:40:17.221Z,28.74
2023-05-21T11:42:44.299Z,29.58
2023-05-21T11:45:11.244Z,29.78
2023-05-21T11:47:37.967Z,29.41
2023-05-21T11:50:05.150Z,29.82
2023-05-21T11:52:33.318Z,29.74
2023-05-21T11:55:00.387Z,29.48
2023-05-21T11:57:31.557Z,29.31
2023-05-21T12:00:02.693Z,29.28
2023-05-21T12:02:33.307Z,29.27
2023-05-21T12:05:00.606Z,29.40
2023-05-21T12:07:31.394Z,29.62
2023-05-21T12:09:58.844Z,29.38
2023-05-21T12:12:30.785Z,30.26
2023-05-21T12:15:03.166Z,30.40
2023-05-21T12:17:31.835Z,30.31
2023-05-21T12:19:59.172Z,30.47
2023-05-21T12:22:28.049Z,30.67
2023-05-21T12:24:54.968Z,30.73
2023-05-21T12:27:22.535Z,30.12
2023-05-21T12:29:51.885Z,29.96
2023-05-21T12:32:20.791Z,30.31
2023-05-21T12:34:52.769Z,30.59
2023-05-21T12:37:23.201Z,30.36
2023-05-21T12:39:55.409Z,29.69
2023-05-21T12:42:35.027Z,29.39
2023-05-21T12:45:06.856Z,29.83
2023-05-21T12:47:33.869Z,29.17
2023-05-21T12:50:02.061Z,28.81
2023-05-21T12:52:29.658Z,28.68
2023-05-21T12:54:57.210Z,28.50
2023-05-21T12:57:35.017Z,28.01
2023-05-21T13:00:04.523Z,28.26
2023-05-21T13:02:33.321Z,28.25
2023-05-21T13:05:07.775Z,28.04
2023-05-21T13:07:38.456Z,28.01
2023-05-21T13:10:06.381Z,27.41
2023-05-21T13:12:34.170Z,27.36
2023-05-21T13:15:03.395Z,27.43
2023-05-21T13:17:30.785Z,27.50
2023-05-21T13:20:15.132Z,27.50
2023-05-21T13:22:44.265Z,27.97
2023-05-21T13:25:11.952Z,28.05
2023-05-21T13:27:42.006Z,27.93
2023-05-21T13:30:09.644Z,27.88
2023-05-21T13:32:36.933Z,28.16
2023-05-21T13:35:04.066Z,28.31
2023-05-21T13:37:31.028Z,28.18
2023-05-21T13:39:57.832Z,27.88
2023-05-21T13:42:24.477Z,27.75
2023-05-21T13:44:51.201Z,27.47
2023-05-21T13:47:17.782Z,27.38
2023-05-21T13:49:44.332Z,27.46
2023-05-21T13:52:11.889Z,27.54
2023-05-21T13:54:38.582Z,27.59
2023-05-21T13:57:05.435Z,27.56
2023-05-21T13:59:33.837Z,27.52
2023-05-21T14:02:01.136Z,27.36
2023-05-21T14:04:27.818Z,27.41
2023-05-21T14:06:54.531Z,27.61
2023-05-21T14:09:21.510Z,27.67
2023-05-21T14:11:48.080Z,27.61
2023-05-21T14:14:18.966Z,27.24
2023-05-21T14:16:47.389Z,27.25
2023-05-21T14:19:14.942Z,27.29
2023-05-21T14:21:42.198Z,27.41
2023-05-21T14:24:08.971Z,27.61
2023-05-21T14:26:40.265Z,27.59
2023-05-21T14:29:07.387Z,27.96
2023-05-21T14:31:34.230Z,27.91
2023-05-21T14:34:01.997Z,27.77
2023-05-21T14:36:29.308Z,27.70
2023-05-21T14:38:56.267Z,27.80
2023-05-21T14:41:26.907Z,27.98
2023-05-21T14:43:53.957Z,28.10
2023-05-21T14:46:21.027Z,27.90
2023-05-21T14:48:47.767Z,28.13
2023-05-21T14:51:14.614Z,28.14
2023-05-21T14:53:41.332Z,28.20
2023-05-21T14:56:08.519Z,28.15
2023-05-21T14:58:35.238Z,28.03
2023-05-21T15:01:02.697Z,27.91
2023-05-21T15:03:29.458Z,27.79
2023-05-21T15:05:56.373Z,27.81
2023-05-21T15:08:23.110Z,27.73
2023-05-21T15:10:49.626Z,27.75
2023-05-21T15:13:16.302Z,27.91
2023-05-21T15:15:43.048Z,27.50
2023-05-21T15:18:09.791Z,27.58
2023-05-21T15:20:36.475Z,27.78
2023-05-21T15:25:32.655Z,27.52
2023-05-21T15:27:59.579Z,27.38
2023-05-21T15:30:27.455Z,27.40
2023-05-21T15:32:54.462Z,27.57
2023-05-21T15:35:21.204Z,27.51
2023-05-21T15:37:47.834Z,27.59
2023-05-21T15:40:14.678Z,27.56
2023-05-21T15:42:41.347Z,27.56
2023-05-21T15:45:08.502Z,27.33
2023-05-21T15:47:35.178Z,27.31
2023-05-21T15:50:01.815Z,27.49
2023-05-21T15:52:28.538Z,27.61
2023-05-21T15:54:55.184Z,27.50
2023-05-21T15:57:22.026Z,27.23
2023-05-21T15:59:50.595Z,27.19
2023-05-21T16:02:17.258Z,27.05
2023-05-21T16:04:43.922Z,26.99
2023-05-21T16:07:10.604Z,27.02
2023-05-21T16:09:38.383Z,27.08
2023-05-21T16:12:05.468Z,27.16
2023-05-21T16:14:32.096Z,26.89
2023-05-21T16:16:58.795Z,26.74
2023-05-21T16:19:25.732Z,26.66
2023-05-21T16:21:52.410Z,26.74
2023-05-21T16:24:19.208Z,26.58
2023-05-21T16:26:46.480Z,26.48
2023-05-21T16:29:13.215Z,26.37
2023-05-21T16:31:40.054Z,26.29
2023-05-21T16:34:07.229Z,26.18
2023-05-21T16:36:34.130Z,26.09
2023-05-21T16:39:00.732Z,25.84
2023-05-21T16:41:27.512Z,25.89
2023-05-21T16:43:54.531Z,25.97
2023-05-21T16:46:21.786Z,25.79
2023-05-21T16:48:48.569Z,25.57
2023-05-21T16:51:15.554Z,25.51
2023-05-21T16:53:42.141Z,25.43
2023-05-21T16:56:08.954Z,25.30
2023-05-21T16:58:36.352Z,25.21
2023-05-21T17:01:04.007Z,25.11
2023-05-21T17:03:32.639Z,25.11
2023-05-21T17:05:59.383Z,24.98
2023-05-21T17:08:26.147Z,24.86
2023-05-21T17:10:52.761Z,24.81
2023-05-21T17:13:22.750Z,24.72
2023-05-21T17:15:53.129Z,24.75
2023-05-21T17:18:19.964Z,24.68
2023-05-21T17:20:46.656Z,24.62
2023-05-21T17:23:13.628Z,24.55
2023-05-21T17:25:40.826Z,24.33
2023-05-21T17:28:07.700Z,24.26
2023-05-21T17:30:34.529Z,24.28
2023-05-21T17:33:04.111Z,24.22
2023-05-21T17:35:30.782Z,24.29
2023-05-21T17:37:57.605Z,24.27
2023-05-21T17:40:25.122Z,24.25
2023-05-21T17:42:52.825Z,24.10
2023-05-21T17:45:19.630Z,24.13
2023-05-21T17:47:46.486Z,24.04
2023-05-21T17:50:13.376Z,23.97
2023-05-21T17:52:40.342Z,23.97
2023-05-21T17:55:07.992Z,23.84
2023-05-21T17:57:36.128Z,23.81
2023-05-21T18:00:05.187Z,23.75
2023-05-21T18:02:31.970Z,23.73
2023-05-21T18:04:58.753Z,23.74
2023-05-21T18:07:25.774Z,23.69
2023-05-21T18:09:52.429Z,23.63
2023-05-21T18:12:19.157Z,23.61
2023-05-21T18:14:45.990Z,23.48
2023-05-21T18:17:12.902Z,23.45
2023-05-21T18:19:39.575Z,23.43
2023-05-21T18:22:06.729Z,23.43
2023-05-21T18:24:33.561Z,23.34
2023-05-21T18:27:00.155Z,23.37
2023-05-21T18:29:26.855Z,23.26
2023-05-21T18:31:53.840Z,23.26
2023-05-21T18:34:20.571Z,23.20
2023-05-21T18:36:48.208Z,23.07
2023-05-21T18:39:14.924Z,23.07
2023-05-21T18:41:41.744Z,22.89
2023-05-21T18:44:08.600Z,22.93
2023-05-21T18:46:35.333Z,22.81
2023-05-21T18:49:02.014Z,22.66
2023-05-21T18:51:28.636Z,22.65
2023-05-21T18:53:55.250Z,22.54
2023-05-21T18:56:22.093Z,22.49
2023-05-21T18:58:48.885Z,22.31
2023-05-21T19:01:16.346Z,22.16
2023-05-21T19:03:43.311Z,21.93
2023-05-21T19:06:09.941Z,21.83
2023-05-21T19:08:36.605Z,21.78
2023-05-21T19:11:03.289Z,21.73
2023-05-21T19:13:30.046Z,21.60
2023-05-21T19:15:58.665Z,21.57
2023-05-21T19:18:30.481Z,21.46
2023-05-21T19:20:57.512Z,21.47
2023-05-21T19:23:24.981Z,21.34
2023-05-21T19:25:51.872Z,21.30
2023-05-21T19:28:19.025Z,21.16
2023-05-21T19:30:46.466Z,21.11
2023-05-21T19:33:13.344Z,21.10
2023-05-21T19:35:42.032Z,21.06
2023-05-21T19:38:11.989Z,21.09
2023-05-21T19:40:38.893Z,21.02
2023-05-21T19:43:05.779Z,20.89
2023-05-21T19:45:32.371Z,20.88
2023-05-21T19:48:00.006Z,21.02
2023-05-21T19:50:28.874Z,21.02
2023-05-21T19:52:57.345Z,20.88
2023-05-21T19:55:24.929Z,20.83
2023-05-21T19:57:51.839Z,20.79
2023-05-21T20:00:19.413Z,20.82
2023-05-21T20:02:46.470Z,20.60
2023-05-21T20:05:13.346Z,20.59
2023-05-21T20:07:40.248Z,20.54
2023-05-21T20:10:08.935Z,20.45
2023-05-21T20:12:35.865Z,20.35
2023-05-21T20:15:03.557Z,20.33
2023-05-21T20:17:30.752Z,20.28
2023-05-21T20:19:59.223Z,20.19
2023-05-21T20:22:26.098Z,20.05
2023-05-21T20:24:53.083Z,19.91
2023-05-21T20:27:20.129Z,19.79
2023-05-21T20:29:46.925Z,19.54
2023-05-21T20:32:13.562Z,19.29
2023-05-21T20:34:50.714Z,19.14
2023-05-21T20:37:27.295Z,19.12
2023-05-21T20:39:57.910Z,18.99
2023-05-21T20:42:30.954Z,18.99
2023-05-21T20:45:00.298Z,19.07
2023-05-21T20:47:30.316Z,19.03
2023-05-21T20:50:00.335Z,18.96
2023-05-21T20:52:27.106Z,19.06
2023-05-21T20:54:54.907Z,18.95
2023-05-21T20:57:26.284Z,18.96
2023-05-21T20:59:53.528Z,18.94
2023-05-21T21:02:20.768Z,18.90
2023-05-21T21:04:49.197Z,18.97
2023-05-21T21:07:18.195Z,18.88
2023-05-21T21:09:49.212Z,18.98
2023-05-21T21:12:26.106Z,18.97
2023-05-21T21:14:53.967Z,18.98
2023-05-21T21:17:20.754Z,19.02
2023-05-21T21:19:47.566Z,18.97
2023-05-21T21:22:15.705Z,18.90
2023-05-21T21:24:42.441Z,18.93
2023-05-21T21:27:09.264Z,18.84
2023-05-21T21:29:35.894Z,18.88
2023-05-21T21:32:02.604Z,18.86
2023-05-21T21:34:29.300Z,18.84
2023-05-21T21:36:56.249Z,18.94
2023-05-21T21:39:22.885Z,18.87
2023-05-21T21:41:49.548Z,18.80
2023-05-21T21:44:16.177Z,18.68
2023-05-21T21:46:42.902Z,18.45
2023-05-21T21:49:09.648Z,18.21
2023-05-21T21:51:37.028Z,18.12
2023-05-21T21:54:04.174Z,17.97
2023-05-21T21:56:31.030Z,17.91
2023-05-21T21:58:57.689Z,17.82
2023-05-21T22:01:24.474Z,17.72
2023-05-21T22:03:51.206Z,17.62
2023-05-21T22:06:17.900Z,17.58
2023-05-21T22:08:44.864Z,17.51
2023-05-21T22:11:11.778Z,17.44
2023-05-21T22:13:38.789Z,17.38
2023-05-21T22:16:05.790Z,17.27
2023-05-21T22:18:40.940Z,17.18
2023-05-21T22:21:10.397Z,17.17
2023-05-21T22:23:38.529Z,17.19
2023-05-21T22:26:05.637Z,17.14
2023-05-21T22:28:32.366Z,17.16
2023-05-21T22:30:59.567Z,17.16
2023-05-21T22:33:26.910Z,17.06
2023-05-21T22:35:54.272Z,17.02
2023-05-21T22:38:21.013Z,16.98
2023-05-21T22:40:47.716Z,16.98
2023-05-21T22:43:14.366Z,16.90
2023-05-21T22:45:40.961Z,16.86
2023-05-21T22:48:09.119Z,16.77
2023-05-21T22:50:36.269Z,16.66
2023-05-21T22:53:03.306Z,16.59
2023-05-21T22:55:29.890Z,16.49
2023-05-21T22:57:56.658Z,16.49
2023-05-21T23:00:23.555Z,16.52
2023-05-21T23:02:53.095Z,16.57
2023-05-21T23:05:20.867Z,16.56
2023-05-21T23:07:47.646Z,16.58
2023-05-21T23:10:14.615Z,16.59
2023-05-21T23:12:41.512Z,16.58
2023-05-21T23:15:10.131Z,16.58
2023-05-21T23:17:37.877Z,16.60
2023-05-21T23:20:06.405Z,16.68
2023-05-21T23:22:33.051Z,16.78
2023-05-21T23:24:59.702Z,16.90
2023-05-21T23:27:26.318Z,17.03
2023-05-21T23:29:52.890Z,17.02
2023-05-21T23:32:19.692Z,17.04
2023-05-21T23:34:46.537Z,17.13
2023-05-21T23:37:13.151Z,17.12
2023-05-21T23:39:39.969Z,17.16
2023-05-21T23:42:06.827Z,17.22
2023-05-21T23:44:33.517Z,17.21
2023-05-21T23:47:00.053Z,17.14
2023-05-21T23:49:26.620Z,16.99
2023-05-21T23:51:53.496Z,17.01
2023-05-21T23:54:20.045Z,16.93
2023-05-21T23:56:46.878Z,16.95
2023-05-21T23:59:14.184Z,16.86
